sensor_id;sensor_type;location;lat;lon;timestamp;P1;durP1;ratioP1;P2;durP2;ratioP2
7171;SDS011;3627;46.544;14.944;2022-11-28T00:02:25;10.17;;;5.57;;
7171;SDS011;3627;46.544;14.944;2022-11-28T00:04:52;12.23;;;5.73;;
7171;SDS011;3627;46.544;14.944;2022-11-28T00:07:18;9.03;;;5.80;;
7171;SDS011;3627;46.544;14.944;2022-11-28T00:09:44;7.07;;;5.17;;
7171;SDS011;3627;46.544;14.944;2022-11-28T00:12:11;9.20;;;5.40;;
7171;SDS011;3627;46.544;14.944;2022-11-28T00:14:37;7.90;;;5.97;;
7171;SDS011;3627;46.544;14.944;2022-11-28T00:17:05;8.40;;;5.80;;
7171;SDS011;3627;46.544;14.944;2022-11-28T00:19:31;11.53;;;5.97;;
7171;SDS011;3627;46.544;14.944;2022-11-28T00:21:58;11.13;;;6.23;;
7171;SDS011;3627;46.544;14.944;2022-11-28T00:24:24;8.77;;;5.73;;
7171;SDS011;3627;46.544;14.944;2022-11-28T00:26:51;8.87;;;5.83;;
7171;SDS011;3627;46.544;14.944;2022-11-28T00:29:17;10.23;;;5.77;;
7171;SDS011;3627;46.544;14.944;2022-11-28T00:31:44;7.13;;;4.97;;
7171;SDS011;3627;46.544;14.944;2022-11-28T00:34:12;7.83;;;5.63;;
7171;SDS011;3627;46.544;14.944;2022-11-28T00:36:38;10.30;;;5.67;;
7171;SDS011;3627;46.544;14.944;2022-11-28T00:39:05;14.20;;;6.40;;
7171;SDS011;3627;46.544;14.944;2022-11-28T00:41:31;11.70;;;6.00;;
7171;SDS011;3627;46.544;14.944;2022-11-28T00:43:59;7.77;;;5.30;;
7171;SDS011;3627;46.544;14.944;2022-11-28T00:46:26;9.47;;;6.07;;
7171;SDS011;3627;46.544;14.944;2022-11-28T00:48:52;8.33;;;6.30;;
7171;SDS011;3627;46.544;14.944;2022-11-28T00:51:21;10.63;;;6.73;;
7171;SDS011;3627;46.544;14.944;2022-11-28T00:53:48;10.63;;;5.93;;
7171;SDS011;3627;46.544;14.944;2022-11-28T00:56:15;9.47;;;5.77;;
7171;SDS011;3627;46.544;14.944;2022-11-28T00:58:41;11.03;;;6.47;;
7171;SDS011;3627;46.544;14.944;2022-11-28T01:01:08;7.80;;;5.90;;
7171;SDS011;3627;46.544;14.944;2022-11-28T01:03:35;9.27;;;6.00;;
7171;SDS011;3627;46.544;14.944;2022-11-28T01:06:01;9.83;;;5.87;;
7171;SDS011;3627;46.544;14.944;2022-11-28T01:08:29;11.60;;;6.67;;
7171;SDS011;3627;46.544;14.944;2022-11-28T01:10:55;11.13;;;6.57;;
7171;SDS011;3627;46.544;14.944;2022-11-28T01:13:22;9.23;;;6.37;;
7171;SDS011;3627;46.544;14.944;2022-11-28T01:15:48;9.57;;;5.23;;
7171;SDS011;3627;46.544;14.944;2022-11-28T01:18:15;8.53;;;6.50;;
7171;SDS011;3627;46.544;14.944;2022-11-28T01:20:41;10.00;;;6.17;;
7171;SDS011;3627;46.544;14.944;2022-11-28T01:23:07;10.83;;;5.90;;
7171;SDS011;3627;46.544;14.944;2022-11-28T01:25:35;11.80;;;6.83;;
7171;SDS011;3627;46.544;14.944;2022-11-28T01:28:02;10.40;;;6.13;;
7171;SDS011;3627;46.544;14.944;2022-11-28T01:30:28;9.50;;;5.83;;
7171;SDS011;3627;46.544;14.944;2022-11-28T01:32:55;11.63;;;7.27;;
7171;SDS011;3627;46.544;14.944;2022-11-28T01:35:21;9.67;;;6.20;;
7171;SDS011;3627;46.544;14.944;2022-11-28T01:37:47;9.37;;;6.03;;
7171;SDS011;3627;46.544;14.944;2022-11-28T01:40:14;8.70;;;6.53;;
7171;SDS011;3627;46.544;14.944;2022-11-28T01:42:42;10.90;;;6.53;;
7171;SDS011;3627;46.544;14.944;2022-11-28T01:45:13;13.33;;;7.00;;
7171;SDS011;3627;46.544;14.944;2022-11-28T01:47:41;9.77;;;6.03;;
7171;SDS011;3627;46.544;14.944;2022-11-28T01:50:08;10.60;;;6.27;;
7171;SDS011;3627;46.544;14.944;2022-11-28T01:52:35;12.27;;;6.73;;
7171;SDS011;3627;46.544;14.944;2022-11-28T01:55:02;9.90;;;6.93;;
7171;SDS011;3627;46.544;14.944;2022-11-28T01:57:29;8.00;;;5.97;;
7171;SDS011;3627;46.544;14.944;2022-11-28T01:59:57;11.97;;;6.70;;
7171;SDS011;3627;46.544;14.944;2022-11-28T02:02:26;11.97;;;6.30;;
7171;SDS011;3627;46.544;14.944;2022-11-28T02:04:54;9.13;;;7.13;;
7171;SDS011;3627;46.544;14.944;2022-11-28T02:07:21;14.57;;;7.50;;
7171;SDS011;3627;46.544;14.944;2022-11-28T02:09:48;9.50;;;6.10;;
7171;SDS011;3627;46.544;14.944;2022-11-28T02:12:18;13.67;;;7.20;;
7171;SDS011;3627;46.544;14.944;2022-11-28T02:14:53;14.33;;;6.70;;
7171;SDS011;3627;46.544;14.944;2022-11-28T02:17:23;8.37;;;5.57;;
7171;SDS011;3627;46.544;14.944;2022-11-28T02:22:50;8.63;;;5.57;;
7171;SDS011;3627;46.544;14.944;2022-11-28T02:30:50;8.63;;;5.60;;
7171;SDS011;3627;46.544;14.944;2022-11-28T02:33:20;13.40;;;6.83;;
7171;SDS011;3627;46.544;14.944;2022-11-28T02:35:59;9.30;;;6.30;;
7171;SDS011;3627;46.544;14.944;2022-11-28T02:38:33;9.67;;;5.90;;
7171;SDS011;3627;46.544;14.944;2022-11-28T02:41:04;13.97;;;7.87;;
7171;SDS011;3627;46.544;14.944;2022-11-28T02:43:32;9.83;;;6.73;;
7171;SDS011;3627;46.544;14.944;2022-11-28T02:46:02;10.17;;;7.17;;
7171;SDS011;3627;46.544;14.944;2022-11-28T02:48:36;13.10;;;7.00;;
7171;SDS011;3627;46.544;14.944;2022-11-28T02:51:04;8.33;;;5.97;;
7171;SDS011;3627;46.544;14.944;2022-11-28T02:53:32;17.60;;;6.90;;
7171;SDS011;3627;46.544;14.944;2022-11-28T02:55:59;8.57;;;6.40;;
7171;SDS011;3627;46.544;14.944;2022-11-28T02:58:25;11.63;;;6.40;;
7171;SDS011;3627;46.544;14.944;2022-11-28T03:00:52;13.97;;;6.57;;
7171;SDS011;3627;46.544;14.944;2022-11-28T03:03:24;9.77;;;5.93;;
7171;SDS011;3627;46.544;14.944;2022-11-28T03:06:01;7.27;;;5.80;;
7171;SDS011;3627;46.544;14.944;2022-11-28T03:08:34;11.10;;;6.83;;
7171;SDS011;3627;46.544;14.944;2022-11-28T03:11:04;12.80;;;7.37;;
7171;SDS011;3627;46.544;14.944;2022-11-28T03:13:36;11.03;;;5.77;;
7171;SDS011;3627;46.544;14.944;2022-11-28T03:16:05;10.03;;;5.93;;
7171;SDS011;3627;46.544;14.944;2022-11-28T03:18:36;10.73;;;5.73;;
7171;SDS011;3627;46.544;14.944;2022-11-28T03:21:08;7.33;;;5.33;;
7171;SDS011;3627;46.544;14.944;2022-11-28T03:23:36;10.47;;;6.73;;
7171;SDS011;3627;46.544;14.944;2022-11-28T03:26:04;14.40;;;6.97;;
7171;SDS011;3627;46.544;14.944;2022-11-28T03:28:33;8.30;;;5.57;;
7171;SDS011;3627;46.544;14.944;2022-11-28T03:31:01;10.33;;;7.03;;
7171;SDS011;3627;46.544;14.944;2022-11-28T03:33:30;9.90;;;6.37;;
7171;SDS011;3627;46.544;14.944;2022-11-28T03:35:57;9.83;;;6.50;;
7171;SDS011;3627;46.544;14.944;2022-11-28T03:38:27;10.20;;;5.60;;
7171;SDS011;3627;46.544;14.944;2022-11-28T03:40:55;9.83;;;5.87;;
7171;SDS011;3627;46.544;14.944;2022-11-28T03:43:24;9.53;;;5.63;;
7171;SDS011;3627;46.544;14.944;2022-11-28T03:45:54;10.17;;;5.80;;
7171;SDS011;3627;46.544;14.944;2022-11-28T03:48:22;11.97;;;6.67;;
7171;SDS011;3627;46.544;14.944;2022-11-28T03:50:50;11.50;;;6.67;;
7171;SDS011;3627;46.544;14.944;2022-11-28T03:53:19;12.27;;;7.13;;
7171;SDS011;3627;46.544;14.944;2022-11-28T03:55:49;12.60;;;7.67;;
7171;SDS011;3627;46.544;14.944;2022-11-28T03:58:19;9.40;;;6.20;;
7171;SDS011;3627;46.544;14.944;2022-11-28T04:00:50;11.50;;;6.80;;
7171;SDS011;3627;46.544;14.944;2022-11-28T04:03:21;9.20;;;5.63;;
7171;SDS011;3627;46.544;14.944;2022-11-28T04:05:52;11.77;;;6.13;;
7171;SDS011;3627;46.544;14.944;2022-11-28T04:08:21;8.90;;;6.23;;
7171;SDS011;3627;46.544;14.944;2022-11-28T04:10:51;8.80;;;5.80;;
7171;SDS011;3627;46.544;14.944;2022-11-28T04:13:20;9.10;;;5.97;;
7171;SDS011;3627;46.544;14.944;2022-11-28T04:15:50;10.03;;;5.53;;
7171;SDS011;3627;46.544;14.944;2022-11-28T04:18:20;10.90;;;5.50;;
7171;SDS011;3627;46.544;14.944;2022-11-28T04:20:49;10.37;;;6.47;;
7171;SDS011;3627;46.544;14.944;2022-11-28T04:23:17;12.33;;;5.77;;
7171;SDS011;3627;46.544;14.944;2022-11-28T04:25:46;8.90;;;5.63;;
7171;SDS011;3627;46.544;14.944;2022-11-28T04:28:17;10.47;;;6.67;;
7171;SDS011;3627;46.544;14.944;2022-11-28T04:30:46;10.87;;;5.97;;
7171;SDS011;3627;46.544;14.944;2022-11-28T04:33:13;12.43;;;6.20;;
7171;SDS011;3627;46.544;14.944;2022-11-28T04:35:43;7.13;;;5.33;;
7171;SDS011;3627;46.544;14.944;2022-11-28T04:38:10;9.67;;;5.97;;
7171;SDS011;3627;46.544;14.944;2022-11-28T04:40:39;11.80;;;5.97;;
7171;SDS011;3627;46.544;14.944;2022-11-28T04:43:08;9.63;;;6.20;;
7171;SDS011;3627;46.544;14.944;2022-11-28T04:45:38;14.50;;;5.57;;
7171;SDS011;3627;46.544;14.944;2022-11-28T04:48:05;12.67;;;7.17;;
7171;SDS011;3627;46.544;14.944;2022-11-28T04:50:36;10.03;;;5.90;;
7171;SDS011;3627;46.544;14.944;2022-11-28T04:53:04;11.47;;;6.47;;
7171;SDS011;3627;46.544;14.944;2022-11-28T04:55:35;11.27;;;6.50;;
7171;SDS011;3627;46.544;14.944;2022-11-28T04:58:04;9.63;;;6.30;;
7171;SDS011;3627;46.544;14.944;2022-11-28T05:00:33;13.60;;;6.50;;
7171;SDS011;3627;46.544;14.944;2022-11-28T05:03:01;11.37;;;6.77;;
7171;SDS011;3627;46.544;14.944;2022-11-28T05:05:29;8.87;;;6.13;;
7171;SDS011;3627;46.544;14.944;2022-11-28T05:07:55;11.13;;;6.27;;
7171;SDS011;3627;46.544;14.944;2022-11-28T05:10:22;14.77;;;6.47;;
7171;SDS011;3627;46.544;14.944;2022-11-28T05:12:49;10.53;;;7.20;;
7171;SDS011;3627;46.544;14.944;2022-11-28T05:15:15;14.33;;;6.77;;
7171;SDS011;3627;46.544;14.944;2022-11-28T05:17:43;18.43;;;7.53;;
7171;SDS011;3627;46.544;14.944;2022-11-28T05:20:11;10.40;;;6.47;;
7171;SDS011;3627;46.544;14.944;2022-11-28T05:22:37;13.00;;;6.80;;
7171;SDS011;3627;46.544;14.944;2022-11-28T05:25:04;10.00;;;5.50;;
7171;SDS011;3627;46.544;14.944;2022-11-28T05:27:31;10.37;;;6.83;;
7171;SDS011;3627;46.544;14.944;2022-11-28T05:29:57;11.43;;;6.83;;
7171;SDS011;3627;46.544;14.944;2022-11-28T05:32:23;12.87;;;7.03;;
7171;SDS011;3627;46.544;14.944;2022-11-28T05:34:50;11.80;;;6.57;;
7171;SDS011;3627;46.544;14.944;2022-11-28T05:37:17;11.93;;;6.60;;
7171;SDS011;3627;46.544;14.944;2022-11-28T05:39:44;13.73;;;6.40;;
7171;SDS011;3627;46.544;14.944;2022-11-28T05:42:10;7.97;;;6.30;;
7171;SDS011;3627;46.544;14.944;2022-11-28T05:44:37;12.23;;;7.93;;
7171;SDS011;3627;46.544;14.944;2022-11-28T05:47:03;11.60;;;6.27;;
7171;SDS011;3627;46.544;14.944;2022-11-28T05:49:29;9.20;;;5.97;;
7171;SDS011;3627;46.544;14.944;2022-11-28T05:51:56;10.03;;;6.53;;
7171;SDS011;3627;46.544;14.944;2022-11-28T05:54:23;11.37;;;5.93;;
7171;SDS011;3627;46.544;14.944;2022-11-28T05:56:50;10.63;;;5.83;;
7171;SDS011;3627;46.544;14.944;2022-11-28T05:59:16;8.43;;;5.03;;
7171;SDS011;3627;46.544;14.944;2022-11-28T06:01:43;12.87;;;6.13;;
7171;SDS011;3627;46.544;14.944;2022-11-28T06:04:09;11.73;;;5.83;;
7171;SDS011;3627;46.544;14.944;2022-11-28T06:06:36;10.73;;;6.20;;
7171;SDS011;3627;46.544;14.944;2022-11-28T06:09:02;10.47;;;5.43;;
7171;SDS011;3627;46.544;14.944;2022-11-28T06:11:30;10.30;;;6.40;;
7171;SDS011;3627;46.544;14.944;2022-11-28T06:13:57;12.60;;;6.47;;
7171;SDS011;3627;46.544;14.944;2022-11-28T06:16:24;11.43;;;6.13;;
7171;SDS011;3627;46.544;14.944;2022-11-28T06:18:51;9.90;;;5.80;;
7171;SDS011;3627;46.544;14.944;2022-11-28T06:21:17;9.73;;;6.27;;
7171;SDS011;3627;46.544;14.944;2022-11-28T06:23:44;10.30;;;6.20;;
7171;SDS011;3627;46.544;14.944;2022-11-28T06:26:12;10.20;;;5.97;;
7171;SDS011;3627;46.544;14.944;2022-11-28T06:28:40;9.27;;;6.10;;
7171;SDS011;3627;46.544;14.944;2022-11-28T06:31:08;12.93;;;6.10;;
7171;SDS011;3627;46.544;14.944;2022-11-28T06:33:35;12.83;;;6.63;;
7171;SDS011;3627;46.544;14.944;2022-11-28T06:36:02;10.47;;;6.30;;
7171;SDS011;3627;46.544;14.944;2022-11-28T06:38:29;13.03;;;6.10;;
7171;SDS011;3627;46.544;14.944;2022-11-28T06:40:56;10.73;;;5.97;;
7171;SDS011;3627;46.544;14.944;2022-11-28T06:43:22;11.13;;;6.83;;
7171;SDS011;3627;46.544;14.944;2022-11-28T06:45:50;8.73;;;5.43;;
7171;SDS011;3627;46.544;14.944;2022-11-28T06:48:17;9.10;;;6.17;;
7171;SDS011;3627;46.544;14.944;2022-11-28T06:50:43;9.70;;;6.37;;
7171;SDS011;3627;46.544;14.944;2022-11-28T06:53:10;9.93;;;6.47;;
7171;SDS011;3627;46.544;14.944;2022-11-28T06:55:36;9.27;;;6.17;;
7171;SDS011;3627;46.544;14.944;2022-11-28T06:58:02;10.60;;;6.47;;
7171;SDS011;3627;46.544;14.944;2022-11-28T07:00:29;12.47;;;6.50;;
7171;SDS011;3627;46.544;14.944;2022-11-28T07:02:57;12.97;;;6.03;;
7171;SDS011;3627;46.544;14.944;2022-11-28T07:05:23;9.43;;;6.17;;
7171;SDS011;3627;46.544;14.944;2022-11-28T07:07:51;15.03;;;6.93;;
7171;SDS011;3627;46.544;14.944;2022-11-28T07:10:18;13.70;;;7.00;;
7171;SDS011;3627;46.544;14.944;2022-11-28T07:12:44;15.67;;;7.23;;
7171;SDS011;3627;46.544;14.944;2022-11-28T07:15:11;10.37;;;6.03;;
7171;SDS011;3627;46.544;14.944;2022-11-28T07:17:37;12.63;;;7.00;;
7171;SDS011;3627;46.544;14.944;2022-11-28T07:20:06;10.17;;;6.20;;
7171;SDS011;3627;46.544;14.944;2022-11-28T07:22:33;8.90;;;5.87;;
7171;SDS011;3627;46.544;14.944;2022-11-28T07:24:59;11.80;;;6.73;;
7171;SDS011;3627;46.544;14.944;2022-11-28T07:27:25;12.00;;;6.27;;
7171;SDS011;3627;46.544;14.944;2022-11-28T07:29:52;11.73;;;5.10;;
7171;SDS011;3627;46.544;14.944;2022-11-28T07:32:18;11.43;;;6.57;;
7171;SDS011;3627;46.544;14.944;2022-11-28T07:34:45;11.43;;;5.97;;
7171;SDS011;3627;46.544;14.944;2022-11-28T07:37:13;12.97;;;6.47;;
7171;SDS011;3627;46.544;14.944;2022-11-28T07:39:40;14.37;;;7.13;;
7171;SDS011;3627;46.544;14.944;2022-11-28T07:42:06;10.47;;;5.57;;
7171;SDS011;3627;46.544;14.944;2022-11-28T07:44:32;11.07;;;6.73;;
7171;SDS011;3627;46.544;14.944;2022-11-28T07:46:59;10.17;;;6.43;;
7171;SDS011;3627;46.544;14.944;2022-11-28T07:49:25;8.37;;;5.47;;
7171;SDS011;3627;46.544;14.944;2022-11-28T07:51:52;11.73;;;6.60;;
7171;SDS011;3627;46.544;14.944;2022-11-28T07:54:19;13.60;;;6.77;;
7171;SDS011;3627;46.544;14.944;2022-11-28T07:56:46;9.93;;;6.87;;
7171;SDS011;3627;46.544;14.944;2022-11-28T07:59:12;8.60;;;6.07;;
7171;SDS011;3627;46.544;14.944;2022-11-28T08:01:39;7.07;;;5.33;;
7171;SDS011;3627;46.544;14.944;2022-11-28T08:04:06;6.50;;;4.03;;
7171;SDS011;3627;46.544;14.944;2022-11-28T08:06:34;8.33;;;5.10;;
7171;SDS011;3627;46.544;14.944;2022-11-28T08:09:01;12.50;;;6.60;;
7171;SDS011;3627;46.544;14.944;2022-11-28T08:11:29;11.57;;;5.53;;
7171;SDS011;3627;46.544;14.944;2022-11-28T08:13:56;10.50;;;5.47;;
7171;SDS011;3627;46.544;14.944;2022-11-28T08:16:23;13.33;;;6.43;;
7171;SDS011;3627;46.544;14.944;2022-11-28T08:18:50;12.40;;;5.57;;
7171;SDS011;3627;46.544;14.944;2022-11-28T08:21:18;8.93;;;6.13;;
7171;SDS011;3627;46.544;14.944;2022-11-28T08:23:44;14.60;;;7.33;;
7171;SDS011;3627;46.544;14.944;2022-11-28T08:26:11;12.40;;;7.27;;
7171;SDS011;3627;46.544;14.944;2022-11-28T08:28:40;11.90;;;5.97;;
7171;SDS011;3627;46.544;14.944;2022-11-28T08:31:10;8.57;;;6.27;;
7171;SDS011;3627;46.544;14.944;2022-11-28T08:33:36;14.10;;;6.63;;
7171;SDS011;3627;46.544;14.944;2022-11-28T08:36:03;10.57;;;6.17;;
7171;SDS011;3627;46.544;14.944;2022-11-28T08:38:30;7.93;;;5.97;;
7171;SDS011;3627;46.544;14.944;2022-11-28T08:40:59;13.53;;;6.97;;
7171;SDS011;3627;46.544;14.944;2022-11-28T08:43:25;13.37;;;6.47;;
7171;SDS011;3627;46.544;14.944;2022-11-28T08:45:53;16.23;;;6.23;;
7171;SDS011;3627;46.544;14.944;2022-11-28T08:48:19;11.67;;;6.07;;
7171;SDS011;3627;46.544;14.944;2022-11-28T08:50:46;12.57;;;7.20;;
7171;SDS011;3627;46.544;14.944;2022-11-28T08:53:13;13.60;;;6.47;;
7171;SDS011;3627;46.544;14.944;2022-11-28T08:55:39;10.03;;;5.73;;
7171;SDS011;3627;46.544;14.944;2022-11-28T08:58:06;10.20;;;6.33;;
7171;SDS011;3627;46.544;14.944;2022-11-28T09:00:32;14.67;;;6.13;;
7171;SDS011;3627;46.544;14.944;2022-11-28T09:03:00;20.83;;;8.20;;
7171;SDS011;3627;46.544;14.944;2022-11-28T09:05:26;20.23;;;9.37;;
7171;SDS011;3627;46.544;14.944;2022-11-28T09:07:53;13.93;;;8.03;;
7171;SDS011;3627;46.544;14.944;2022-11-28T09:10:19;9.20;;;6.87;;
7171;SDS011;3627;46.544;14.944;2022-11-28T09:12:46;14.30;;;8.23;;
7171;SDS011;3627;46.544;14.944;2022-11-28T09:15:12;13.10;;;6.83;;
7171;SDS011;3627;46.544;14.944;2022-11-28T09:17:39;9.27;;;5.20;;
7171;SDS011;3627;46.544;14.944;2022-11-28T09:20:07;10.90;;;5.77;;
7171;SDS011;3627;46.544;14.944;2022-11-28T09:22:34;10.33;;;5.53;;
7171;SDS011;3627;46.544;14.944;2022-11-28T09:25:00;6.33;;;4.60;;
7171;SDS011;3627;46.544;14.944;2022-11-28T09:27:27;7.37;;;5.10;;
7171;SDS011;3627;46.544;14.944;2022-11-28T09:29:53;9.60;;;5.03;;
7171;SDS011;3627;46.544;14.944;2022-11-28T09:32:19;7.60;;;5.77;;
7171;SDS011;3627;46.544;14.944;2022-11-28T09:34:46;7.50;;;5.67;;
7171;SDS011;3627;46.544;14.944;2022-11-28T09:37:14;12.43;;;5.47;;
7171;SDS011;3627;46.544;14.944;2022-11-28T09:39:40;9.00;;;5.97;;
7171;SDS011;3627;46.544;14.944;2022-11-28T09:42:07;8.15;;;5.00;;
7171;SDS011;3627;46.544;14.944;2022-11-28T09:44:36;8.55;;;5.30;;
7171;SDS011;3627;46.544;14.944;2022-11-28T09:47:09;7.43;;;5.03;;
7171;SDS011;3627;46.544;14.944;2022-11-28T09:49:39;9.65;;;5.97;;
7171;SDS011;3627;46.544;14.944;2022-11-28T09:52:08;8.63;;;4.75;;
7171;SDS011;3627;46.544;14.944;2022-11-28T09:54:42;6.68;;;4.78;;
7171;SDS011;3627;46.544;14.944;2022-11-28T09:57:11;8.10;;;4.77;;
7171;SDS011;3627;46.544;14.944;2022-11-28T09:59:39;8.65;;;5.22;;
7171;SDS011;3627;46.544;14.944;2022-11-28T10:02:11;6.50;;;4.67;;
7171;SDS011;3627;46.544;14.944;2022-11-28T10:04:43;10.75;;;5.32;;
7171;SDS011;3627;46.544;14.944;2022-11-28T10:07:14;8.30;;;4.93;;
7171;SDS011;3627;46.544;14.944;2022-11-28T10:09:45;5.15;;;4.65;;
7171;SDS011;3627;46.544;14.944;2022-11-28T10:12:18;6.85;;;4.93;;
7171;SDS011;3627;46.544;14.944;2022-11-28T10:14:53;6.80;;;5.40;;
7171;SDS011;3627;46.544;14.944;2022-11-28T10:17:24;14.07;;;6.70;;
7171;SDS011;3627;46.544;14.944;2022-11-28T10:19:54;17.38;;;7.40;;
7171;SDS011;3627;46.544;14.944;2022-11-28T10:22:23;10.50;;;6.43;;
7171;SDS011;3627;46.544;14.944;2022-11-28T10:24:53;8.82;;;4.72;;
7171;SDS011;3627;46.544;14.944;2022-11-28T10:27:21;7.55;;;5.50;;
7171;SDS011;3627;46.544;14.944;2022-11-28T10:29:50;7.18;;;4.95;;
7171;SDS011;3627;46.544;14.944;2022-11-28T10:32:19;7.28;;;4.45;;
7171;SDS011;3627;46.544;14.944;2022-11-28T10:34:48;5.32;;;4.82;;
7171;SDS011;3627;46.544;14.944;2022-11-28T10:37:18;7.85;;;5.13;;
7171;SDS011;3627;46.544;14.944;2022-11-28T10:39:45;8.77;;;5.03;;
7171;SDS011;3627;46.544;14.944;2022-11-28T10:42:14;8.25;;;4.95;;
7171;SDS011;3627;46.544;14.944;2022-11-28T10:44:57;7.50;;;4.78;;
7171;SDS011;3627;46.544;14.944;2022-11-28T10:47:30;6.47;;;4.68;;
7171;SDS011;3627;46.544;14.944;2022-11-28T10:50:02;8.77;;;4.90;;
7171;SDS011;3627;46.544;14.944;2022-11-28T10:52:29;8.45;;;5.45;;
7171;SDS011;3627;46.544;14.944;2022-11-28T10:55:03;7.18;;;4.93;;
7171;SDS011;3627;46.544;14.944;2022-11-28T10:57:35;8.05;;;4.60;;
7171;SDS011;3627;46.544;14.944;2022-11-28T11:00:05;9.70;;;4.67;;
7171;SDS011;3627;46.544;14.944;2022-11-28T11:02:36;7.53;;;4.82;;
7171;SDS011;3627;46.544;14.944;2022-11-28T11:05:03;9.57;;;4.90;;
7171;SDS011;3627;46.544;14.944;2022-11-28T11:07:31;9.45;;;5.40;;
7171;SDS011;3627;46.544;14.944;2022-11-28T11:09:59;9.13;;;5.00;;
7171;SDS011;3627;46.544;14.944;2022-11-28T11:12:27;5.10;;;4.40;;
7171;SDS011;3627;46.544;14.944;2022-11-28T11:14:57;8.05;;;4.35;;
7171;SDS011;3627;46.544;14.944;2022-11-28T11:17:24;8.52;;;4.68;;
7171;SDS011;3627;46.544;14.944;2022-11-28T11:19:51;9.77;;;4.55;;
7171;SDS011;3627;46.544;14.944;2022-11-28T11:22:18;8.93;;;5.30;;
7171;SDS011;3627;46.544;14.944;2022-11-28T11:24:44;6.70;;;4.77;;
7171;SDS011;3627;46.544;14.944;2022-11-28T11:27:27;9.57;;;5.90;;
7171;SDS011;3627;46.544;14.944;2022-11-28T11:29:56;9.57;;;5.03;;
7171;SDS011;3627;46.544;14.944;2022-11-28T11:32:24;9.68;;;5.30;;
7171;SDS011;3627;46.544;14.944;2022-11-28T11:34:51;7.53;;;5.07;;
7171;SDS011;3627;46.544;14.944;2022-11-28T11:37:20;9.10;;;4.57;;
7171;SDS011;3627;46.544;14.944;2022-11-28T11:39:47;12.73;;;6.07;;
7171;SDS011;3627;46.544;14.944;2022-11-28T11:42:18;8.47;;;5.47;;
7171;SDS011;3627;46.544;14.944;2022-11-28T11:44:45;6.88;;;4.40;;
7171;SDS011;3627;46.544;14.944;2022-11-28T11:47:12;7.95;;;4.88;;
7171;SDS011;3627;46.544;14.944;2022-11-28T11:49:39;8.50;;;4.85;;
7171;SDS011;3627;46.544;14.944;2022-11-28T11:52:17;8.95;;;6.15;;
7171;SDS011;3627;46.544;14.944;2022-11-28T11:54:54;8.50;;;5.10;;
7171;SDS011;3627;46.544;14.944;2022-11-28T11:57:22;7.67;;;4.93;;
7171;SDS011;3627;46.544;14.944;2022-11-28T11:59:49;7.82;;;4.50;;
7171;SDS011;3627;46.544;14.944;2022-11-28T12:02:20;7.57;;;4.70;;
7171;SDS011;3627;46.544;14.944;2022-11-28T12:04:49;9.35;;;5.35;;
7171;SDS011;3627;46.544;14.944;2022-11-28T12:07:19;7.63;;;5.18;;
7171;SDS011;3627;46.544;14.944;2022-11-28T12:09:47;7.68;;;5.38;;
7171;SDS011;3627;46.544;14.944;2022-11-28T12:12:14;9.00;;;6.18;;
7171;SDS011;3627;46.544;14.944;2022-11-28T12:14:41;10.00;;;6.60;;
7171;SDS011;3627;46.544;14.944;2022-11-28T12:17:13;10.40;;;5.68;;
7171;SDS011;3627;46.544;14.944;2022-11-28T12:19:49;11.83;;;6.00;;
7171;SDS011;3627;46.544;14.944;2022-11-28T12:22:20;8.73;;;5.88;;
7171;SDS011;3627;46.544;14.944;2022-11-28T12:24:53;8.70;;;5.43;;
7171;SDS011;3627;46.544;14.944;2022-11-28T12:27:25;6.72;;;5.20;;
7171;SDS011;3627;46.544;14.944;2022-11-28T12:29:56;10.83;;;6.00;;
7171;SDS011;3627;46.544;14.944;2022-11-28T12:32:32;9.88;;;5.80;;
7171;SDS011;3627;46.544;14.944;2022-11-28T12:35:07;9.77;;;5.83;;
7171;SDS011;3627;46.544;14.944;2022-11-28T12:37:41;8.60;;;5.50;;
7171;SDS011;3627;46.544;14.944;2022-11-28T12:40:10;9.73;;;5.57;;
7171;SDS011;3627;46.544;14.944;2022-11-28T12:42:45;10.47;;;5.23;;
7171;SDS011;3627;46.544;14.944;2022-11-28T12:45:16;7.30;;;5.67;;
7171;SDS011;3627;46.544;14.944;2022-11-28T12:47:46;8.97;;;5.20;;
7171;SDS011;3627;46.544;14.944;2022-11-28T12:50:20;9.97;;;5.87;;
7171;SDS011;3627;46.544;14.944;2022-11-28T12:52:53;12.88;;;5.03;;
7171;SDS011;3627;46.544;14.944;2022-11-28T12:55:24;12.43;;;5.95;;
7171;SDS011;3627;46.544;14.944;2022-11-28T12:57:54;10.35;;;5.72;;
7171;SDS011;3627;46.544;14.944;2022-11-28T13:00:23;12.10;;;7.00;;
7171;SDS011;3627;46.544;14.944;2022-11-28T13:02:54;9.97;;;6.00;;
7171;SDS011;3627;46.544;14.944;2022-11-28T13:05:26;10.50;;;6.50;;
7171;SDS011;3627;46.544;14.944;2022-11-28T13:10:44;11.87;;;7.03;;
7171;SDS011;3627;46.544;14.944;2022-11-28T13:13:13;9.37;;;6.00;;
7171;SDS011;3627;46.544;14.944;2022-11-28T13:15:45;10.90;;;6.80;;
7171;SDS011;3627;46.544;14.944;2022-11-28T13:18:18;11.65;;;6.88;;
7171;SDS011;3627;46.544;14.944;2022-11-28T13:20:50;9.47;;;5.40;;
7171;SDS011;3627;46.544;14.944;2022-11-28T13:23:19;12.47;;;7.23;;
7171;SDS011;3627;46.544;14.944;2022-11-28T13:25:47;11.53;;;7.17;;
7171;SDS011;3627;46.544;14.944;2022-11-28T13:28:16;8.90;;;5.53;;
7171;SDS011;3627;46.544;14.944;2022-11-28T13:30:45;10.00;;;5.47;;
7171;SDS011;3627;46.544;14.944;2022-11-28T13:33:19;8.77;;;5.77;;
7171;SDS011;3627;46.544;14.944;2022-11-28T13:35:51;9.53;;;6.37;;
7171;SDS011;3627;46.544;14.944;2022-11-28T13:38:19;8.50;;;6.67;;
7171;SDS011;3627;46.544;14.944;2022-11-28T13:40:50;10.37;;;6.77;;
7171;SDS011;3627;46.544;14.944;2022-11-28T13:43:18;9.97;;;5.93;;
7171;SDS011;3627;46.544;14.944;2022-11-28T13:45:49;11.03;;;5.70;;
7171;SDS011;3627;46.544;14.944;2022-11-28T13:51:14;11.83;;;5.60;;
7171;SDS011;3627;46.544;14.944;2022-11-28T13:53:41;8.80;;;5.70;;
7171;SDS011;3627;46.544;14.944;2022-11-28T13:56:21;9.23;;;6.57;;
7171;SDS011;3627;46.544;14.944;2022-11-28T13:58:49;9.03;;;6.13;;
7171;SDS011;3627;46.544;14.944;2022-11-28T14:01:17;10.45;;;6.47;;
7171;SDS011;3627;46.544;14.944;2022-11-28T14:03:45;9.63;;;6.00;;
7171;SDS011;3627;46.544;14.944;2022-11-28T14:06:16;7.82;;;5.65;;
7171;SDS011;3627;46.544;14.944;2022-11-28T14:08:43;8.10;;;5.60;;
7171;SDS011;3627;46.544;14.944;2022-11-28T14:11:24;9.63;;;6.10;;
7171;SDS011;3627;46.544;14.944;2022-11-28T14:13:54;12.93;;;6.20;;
7171;SDS011;3627;46.544;14.944;2022-11-28T14:16:25;10.00;;;6.43;;
7171;SDS011;3627;46.544;14.944;2022-11-28T14:18:59;11.73;;;7.60;;
7171;SDS011;3627;46.544;14.944;2022-11-28T14:21:30;11.73;;;6.80;;
7171;SDS011;3627;46.544;14.944;2022-11-28T14:24:00;11.88;;;6.10;;
7171;SDS011;3627;46.544;14.944;2022-11-28T14:26:31;11.73;;;7.17;;
7171;SDS011;3627;46.544;14.944;2022-11-28T14:28:57;18.00;;;7.85;;
7171;SDS011;3627;46.544;14.944;2022-11-28T14:31:26;15.57;;;9.00;;
7171;SDS011;3627;46.544;14.944;2022-11-28T14:33:57;12.38;;;7.07;;
7171;SDS011;3627;46.544;14.944;2022-11-28T14:36:25;10.73;;;6.87;;
7171;SDS011;3627;46.544;14.944;2022-11-28T14:39:01;13.35;;;7.38;;
7171;SDS011;3627;46.544;14.944;2022-11-28T14:41:28;13.18;;;7.57;;
7171;SDS011;3627;46.544;14.944;2022-11-28T14:43:55;8.40;;;5.63;;
7171;SDS011;3627;46.544;14.944;2022-11-28T14:49:23;9.32;;;5.85;;
7171;SDS011;3627;46.544;14.944;2022-11-28T14:54:36;11.87;;;5.43;;
7171;SDS011;3627;46.544;14.944;2022-11-28T14:57:09;11.02;;;6.88;;
7171;SDS011;3627;46.544;14.944;2022-11-28T14:59:37;10.30;;;6.37;;
7171;SDS011;3627;46.544;14.944;2022-11-28T15:02:04;10.50;;;6.43;;
7171;SDS011;3627;46.544;14.944;2022-11-28T15:04:53;8.10;;;5.78;;
7171;SDS011;3627;46.544;14.944;2022-11-28T15:07:26;9.80;;;6.67;;
7171;SDS011;3627;46.544;14.944;2022-11-28T15:09:58;12.30;;;7.13;;
7171;SDS011;3627;46.544;14.944;2022-11-28T15:12:27;18.23;;;9.77;;
7171;SDS011;3627;46.544;14.944;2022-11-28T15:14:57;18.07;;;8.80;;
7171;SDS011;3627;46.544;14.944;2022-11-28T15:17:24;21.38;;;10.30;;
7171;SDS011;3627;46.544;14.944;2022-11-28T15:19:52;24.13;;;11.33;;
7171;SDS011;3627;46.544;14.944;2022-11-28T15:22:29;17.23;;;10.13;;